sensor_id;sensor_type;location;lat;lon;timestamp;pressure;altitude;pressure_sealevel;temperature;humidity
3780;BME280;1905;52.482;9.802;2022-12-18T00:01:14;102558.66;;;-6.11;88.57
3780;BME280;1905;52.482;9.802;2022-12-18T00:03:42;102567.09;;;-6.13;88.55
3780;BME280;1905;52.482;9.802;2022-12-18T00:06:13;102566.94;;;-6.16;88.72
3780;BME280;1905;52.482;9.802;2022-12-18T00:08:41;102569.78;;;-6.12;88.65
3780;BME280;1905;52.482;9.802;2022-12-18T00:11:13;102562.75;;;-6.14;88.56
3780;BME280;1905;52.482;9.802;2022-12-18T00:13:41;102568.97;;;-6.11;88.09
3780;BME280;1905;52.482;9.802;2022-12-18T00:16:11;102570.47;;;-6.14;88.56
3780;BME280;1905;52.482;9.802;2022-12-18T00:18:40;102571.47;;;-6.12;88.16
3780;BME280;1905;52.482;9.802;2022-12-18T00:21:10;102574.03;;;-6.12;88.17
3780;BME280;1905;52.482;9.802;2022-12-18T00:23:39;102575.78;;;-6.11;88.52
3780;BME280;1905;52.482;9.802;2022-12-18T00:26:14;102576.59;;;-6.12;88.14
3780;BME280;1905;52.482;9.802;2022-12-18T00:28:42;102575.59;;;-6.14;88.11
3780;BME280;1905;52.482;9.802;2022-12-18T00:31:11;102574.66;;;-6.16;88.26
3780;BME280;1905;52.482;9.802;2022-12-18T00:33:39;102583.19;;;-6.17;88.30
3780;BME280;1905;52.482;9.802;2022-12-18T00:36:11;102583.97;;;-6.18;88.36
3780;BME280;1905;52.482;9.802;2022-12-18T00:38:39;102581.41;;;-6.18;88.10
3780;BME280;1905;52.482;9.802;2022-12-18T00:41:08;102569.50;;;-6.16;87.80
3780;BME280;1905;52.482;9.802;2022-12-18T00:43:38;102576.78;;;-6.09;88.17
3780;BME280;1905;52.482;9.802;2022-12-18T00:46:06;102586.19;;;-6.24;88.18
3780;BME280;1905;52.482;9.802;2022-12-18T00:48:33;102598.09;;;-6.26;88.17
3780;BME280;1905;52.482;9.802;2022-12-18T00:51:01;102604.19;;;-6.24;88.52
3780;BME280;1905;52.482;9.802;2022-12-18T00:53:28;102602.69;;;-6.21;87.99
3780;BME280;1905;52.482;9.802;2022-12-18T00:55:56;102604.28;;;-6.23;88.08
3780;BME280;1905;52.482;9.802;2022-12-18T00:58:23;102598.09;;;-6.26;88.10
3780;BME280;1905;52.482;9.802;2022-12-18T01:00:52;102591.34;;;-6.24;87.98
3780;BME280;1905;52.482;9.802;2022-12-18T01:03:20;102586.19;;;-6.24;88.10
3780;BME280;1905;52.482;9.802;2022-12-18T01:05:48;102580.88;;;-6.27;88.04
3780;BME280;1905;52.482;9.802;2022-12-18T01:08:17;102592.78;;;-6.29;88.28
3780;BME280;1905;52.482;9.802;2022-12-18T01:10:45;102587.09;;;-6.24;87.83
3780;BME280;1905;52.482;9.802;2022-12-18T01:13:12;102586.84;;;-6.28;88.17
3780;BME280;1905;52.482;9.802;2022-12-18T01:15:40;102582.31;;;-6.32;88.19
3780;BME280;1905;52.482;9.802;2022-12-18T01:18:11;102585.84;;;-6.30;88.18
3780;BME280;1905;52.482;9.802;2022-12-18T01:20:38;102585.84;;;-6.30;88.13
3780;BME280;1905;52.482;9.802;2022-12-18T01:23:06;102602.88;;;-6.32;88.24
3780;BME280;1905;52.482;9.802;2022-12-18T01:25:35;102591.41;;;-6.39;88.46
3780;BME280;1905;52.482;9.802;2022-12-18T01:28:03;102595.66;;;-6.39;88.48
3780;BME280;1905;52.482;9.802;2022-12-18T01:30:31;102598.41;;;-6.36;88.25
3780;BME280;1905;52.482;9.802;2022-12-18T01:32:59;102606.81;;;-6.39;88.28
3780;BME280;1905;52.482;9.802;2022-12-18T01:35:28;102612.75;;;-6.40;88.60
3780;BME280;1905;52.482;9.802;2022-12-18T01:37:55;102607.53;;;-6.41;88.30
3780;BME280;1905;52.482;9.802;2022-12-18T01:40:23;102607.53;;;-6.41;88.45
3780;BME280;1905;52.482;9.802;2022-12-18T01:42:51;102599.66;;;-6.44;88.32
3780;BME280;1905;52.482;9.802;2022-12-18T01:45:25;102602.53;;;-6.38;88.08
3780;BME280;1905;52.482;9.802;2022-12-18T01:47:55;102596.63;;;-6.37;87.83
3780;BME280;1905;52.482;9.802;2022-12-18T01:50:30;102601.22;;;-6.46;87.98
3780;BME280;1905;52.482;9.802;2022-12-18T01:53:00;102598.84;;;-6.43;87.76
3780;BME280;1905;52.482;9.802;2022-12-18T01:55:31;102608.94;;;-6.46;87.95
3780;BME280;1905;52.482;9.802;2022-12-18T01:58:00;102619.03;;;-6.49;88.07
3780;BME280;1905;52.482;9.802;2022-12-18T02:00:28;102623.50;;;-6.47;88.35
3780;BME280;1905;52.482;9.802;2022-12-18T02:02:56;102611.44;;;-6.48;88.21
3780;BME280;1905;52.482;9.802;2022-12-18T02:05:32;102620.81;;;-6.48;87.97
3780;BME280;1905;52.482;9.802;2022-12-18T02:08:08;102607.00;;;-6.50;88.11
3780;BME280;1905;52.482;9.802;2022-12-18T02:10:46;102617.28;;;-6.50;88.16
3780;BME280;1905;52.482;9.802;2022-12-18T02:13:20;102617.19;;;-6.52;88.15
3780;BME280;1905;52.482;9.802;2022-12-18T02:15:56;102629.97;;;-6.53;88.09
3780;BME280;1905;52.482;9.802;2022-12-18T02:18:28;102624.66;;;-6.56;88.12
3780;BME280;1905;52.482;9.802;2022-12-18T02:21:04;102627.31;;;-6.55;88.19
3780;BME280;1905;52.482;9.802;2022-12-18T02:23:44;102626.25;;;-6.58;88.13
3780;BME280;1905;52.482;9.802;2022-12-18T02:26:18;102620.22;;;-6.59;88.52
3780;BME280;1905;52.482;9.802;2022-12-18T02:32:46;102612.59;;;-6.57;87.96
3780;BME280;1905;52.482;9.802;2022-12-18T02:35:17;102611.28;;;-6.66;88.18
3780;BME280;1905;52.482;9.802;2022-12-18T02:37:48;102613.78;;;-6.67;88.26
3780;BME280;1905;52.482;9.802;2022-12-18T02:40:17;102614.19;;;-6.59;88.18
3780;BME280;1905;52.482;9.802;2022-12-18T02:42:46;102616.75;;;-6.59;87.94
3780;BME280;1905;52.482;9.802;2022-12-18T02:45:16;102615.00;;;-6.60;88.15
3780;BME280;1905;52.482;9.802;2022-12-18T02:47:47;102601.91;;;-6.65;88.08
3780;BME280;1905;52.482;9.802;2022-12-18T02:50:19;102604.56;;;-6.63;87.92
3780;BME280;1905;52.482;9.802;2022-12-18T02:53:05;102597.28;;;-6.71;87.96
3780;BME280;1905;52.482;9.802;2022-12-18T02:55:42;102595.72;;;-6.69;88.12
3780;BME280;1905;52.482;9.802;2022-12-18T02:58:19;102598.13;;;-6.72;88.06
3780;BME280;1905;52.482;9.802;2022-12-18T03:00:54;102599.78;;;-6.72;88.35
3780;BME280;1905;52.482;9.802;2022-12-18T03:03:29;102600.69;;;-6.72;88.02
3780;BME280;1905;52.482;9.802;2022-12-18T03:06:03;102600.41;;;-6.76;88.14
3780;BME280;1905;52.482;9.802;2022-12-18T03:08:35;102601.94;;;-6.80;88.28
3780;BME280;1905;52.482;9.802;2022-12-18T03:11:08;102607.25;;;-6.77;88.26
3780;BME280;1905;52.482;9.802;2022-12-18T03:13:42;102601.94;;;-6.80;88.22
3780;BME280;1905;52.482;9.802;2022-12-18T03:16:15;102602.63;;;-6.82;88.33
3780;BME280;1905;52.482;9.802;2022-12-18T03:18:47;102600.16;;;-6.81;88.27
3780;BME280;1905;52.482;9.802;2022-12-18T03:21:19;102595.09;;;-6.79;88.07
3780;BME280;1905;52.482;9.802;2022-12-18T03:23:49;102585.53;;;-6.82;88.03
3780;BME280;1905;52.482;9.802;2022-12-18T03:26:24;102585.34;;;-6.85;88.20
3780;BME280;1905;52.482;9.802;2022-12-18T03:29:02;102586.94;;;-6.87;88.02
3780;BME280;1905;52.482;9.802;2022-12-18T03:31:34;102584.50;;;-6.85;88.19
3780;BME280;1905;52.482;9.802;2022-12-18T03:34:06;102584.38;;;-6.87;88.29
3780;BME280;1905;52.482;9.802;2022-12-18T03:36:41;102599.59;;;-6.90;88.20
3780;BME280;1905;52.482;9.802;2022-12-18T03:39:14;102603.00;;;-6.91;88.32
3780;BME280;1905;52.482;9.802;2022-12-18T03:41:52;102603.78;;;-6.92;88.35
3780;BME280;1905;52.482;9.802;2022-12-18T03:44:38;102608.03;;;-6.92;87.94
3780;BME280;1905;52.482;9.802;2022-12-18T03:47:14;102609.88;;;-6.90;88.47
3780;BME280;1905;52.482;9.802;2022-12-18T03:49:47;102606.16;;;-6.95;88.24
3780;BME280;1905;52.482;9.802;2022-12-18T03:52:22;102604.41;;;-6.96;88.29
3780;BME280;1905;52.482;9.802;2022-12-18T03:54:54;102608.84;;;-6.93;88.21
3780;BME280;1905;52.482;9.802;2022-12-18T03:57:27;102596.44;;;-7.00;88.37
3780;BME280;1905;52.482;9.802;2022-12-18T04:00:00;102606.69;;;-7.00;88.15
3780;BME280;1905;52.482;9.802;2022-12-18T04:02:43;102598.09;;;-7.01;88.11
3780;BME280;1905;52.482;9.802;2022-12-18T04:05:19;102601.38;;;-7.03;88.53
3780;BME280;1905;52.482;9.802;2022-12-18T04:07:49;102611.66;;;-7.03;88.04
3780;BME280;1905;52.482;9.802;2022-12-18T04:10:18;102610.69;;;-7.05;88.13
3780;BME280;1905;52.482;9.802;2022-12-18T04:12:46;102614.75;;;-7.09;88.09
3780;BME280;1905;52.482;9.802;2022-12-18T04:15:19;102612.38;;;-7.06;88.22
3780;BME280;1905;52.482;9.802;2022-12-18T04:17:48;102615.56;;;-7.10;87.80
3780;BME280;1905;52.482;9.802;2022-12-18T04:20:19;102617.31;;;-7.09;87.98
3780;BME280;1905;52.482;9.802;2022-12-18T04:22:47;102618.03;;;-7.11;87.80
3780;BME280;1905;52.482;9.802;2022-12-18T04:25:18;102617.84;;;-7.14;88.05
3780;BME280;1905;52.482;9.802;2022-12-18T04:27:57;102614.22;;;-7.18;88.08
3780;BME280;1905;52.482;9.802;2022-12-18T04:30:26;102599.81;;;-7.16;88.49
3780;BME280;1905;52.482;9.802;2022-12-18T04:32:53;102604.94;;;-7.16;88.03
3780;BME280;1905;52.482;9.802;2022-12-18T04:35:21;102603.16;;;-7.17;88.07
3780;BME280;1905;52.482;9.802;2022-12-18T04:37:49;102603.16;;;-7.17;87.86
3780;BME280;1905;52.482;9.802;2022-12-18T04:40:17;102609.00;;;-7.19;88.02
3780;BME280;1905;52.482;9.802;2022-12-18T04:42:46;102601.03;;;-7.24;88.24
3780;BME280;1905;52.482;9.802;2022-12-18T04:45:14;102594.94;;;-7.26;88.14
3780;BME280;1905;52.482;9.802;2022-12-18T04:47:43;102592.19;;;-7.29;87.97
3780;BME280;1905;52.482;9.802;2022-12-18T04:50:10;102588.13;;;-7.26;88.04
3780;BME280;1905;52.482;9.802;2022-12-18T04:52:38;102588.03;;;-7.27;87.83
3780;BME280;1905;52.482;9.802;2022-12-18T04:55:06;102586.88;;;-7.32;88.12
3780;BME280;1905;52.482;9.802;2022-12-18T04:57:34;102586.88;;;-7.32;87.74
3780;BME280;1905;52.482;9.802;2022-12-18T05:00:03;102597.72;;;-7.36;88.30
3780;BME280;1905;52.482;9.802;2022-12-18T05:02:32;102586.50;;;-7.38;88.21
3780;BME280;1905;52.482;9.802;2022-12-18T05:05:01;102598.56;;;-7.37;87.96
3780;BME280;1905;52.482;9.802;2022-12-18T05:07:29;102600.16;;;-7.39;87.80
3780;BME280;1905;52.482;9.802;2022-12-18T05:09:56;102604.09;;;-7.44;88.08
3780;BME280;1905;52.482;9.802;2022-12-18T05:12:24;102607.03;;;-7.38;87.41
3780;BME280;1905;52.482;9.802;2022-12-18T05:14:52;102614.47;;;-7.43;88.07
3780;BME280;1905;52.482;9.802;2022-12-18T05:17:19;102606.66;;;-7.44;88.04
3780;BME280;1905;52.482;9.802;2022-12-18T05:19:47;102614.34;;;-7.44;87.88
3780;BME280;1905;52.482;9.802;2022-12-18T05:22:16;102615.94;;;-7.46;87.83
3780;BME280;1905;52.482;9.802;2022-12-18T05:24:43;102627.00;;;-7.47;88.08
3780;BME280;1905;52.482;9.802;2022-12-18T05:27:11;102626.00;;;-7.49;87.95
3780;BME280;1905;52.482;9.802;2022-12-18T05:29:38;102622.75;;;-7.47;87.88
3780;BME280;1905;52.482;9.802;2022-12-18T05:32:06;102623.63;;;-7.46;87.73
3780;BME280;1905;52.482;9.802;2022-12-18T05:34:33;102629.56;;;-7.47;87.60
3780;BME280;1905;52.482;9.802;2022-12-18T05:37:01;102632.03;;;-7.49;87.67
3780;BME280;1905;52.482;9.802;2022-12-18T05:39:30;102637.09;;;-7.50;87.77
3780;BME280;1905;52.482;9.802;2022-12-18T05:41:57;102643.59;;;-7.55;87.78
3780;BME280;1905;52.482;9.802;2022-12-18T05:44:25;102650.63;;;-7.53;88.19
3780;BME280;1905;52.482;9.802;2022-12-18T05:46:53;102658.31;;;-7.53;87.72
3780;BME280;1905;52.482;9.802;2022-12-18T05:49:21;102655.63;;;-7.54;88.24
3780;BME280;1905;52.482;9.802;2022-12-18T05:51:49;102662.56;;;-7.53;87.85
3780;BME280;1905;52.482;9.802;2022-12-18T05:54:16;102654.75;;;-7.55;88.20
3780;BME280;1905;52.482;9.802;2022-12-18T05:56:45;102667.28;;;-7.59;87.85
3780;BME280;1905;52.482;9.802;2022-12-18T05:59:14;102663.75;;;-7.61;87.75
3780;BME280;1905;52.482;9.802;2022-12-18T06:01:42;102672.22;;;-7.62;87.75
3780;BME280;1905;52.482;9.802;2022-12-18T06:04:09;102656.94;;;-7.61;87.86
3780;BME280;1905;52.482;9.802;2022-12-18T06:06:37;102658.63;;;-7.61;87.99
3780;BME280;1905;52.482;9.802;2022-12-18T06:09:05;102651.91;;;-7.59;87.95
3780;BME280;1905;52.482;9.802;2022-12-18T06:11:35;102644.81;;;-7.63;87.96
3780;BME280;1905;52.482;9.802;2022-12-18T06:14:05;102648.19;;;-7.64;87.74
3780;BME280;1905;52.482;9.802;2022-12-18T06:16:33;102653.31;;;-7.64;88.08
3780;BME280;1905;52.482;9.802;2022-12-18T06:19:03;102656.66;;;-7.65;87.99
3780;BME280;1905;52.482;9.802;2022-12-18T06:21:32;102661.59;;;-7.68;88.05
3780;BME280;1905;52.482;9.802;2022-12-18T06:24:00;102656.66;;;-7.65;87.85
3780;BME280;1905;52.482;9.802;2022-12-18T06:26:28;102659.84;;;-7.69;87.69
3780;BME280;1905;52.482;9.802;2022-12-18T06:28:55;102661.59;;;-7.68;87.57
3780;BME280;1905;52.482;9.802;2022-12-18T06:31:25;102658.06;;;-7.70;88.01
3780;BME280;1905;52.482;9.802;2022-12-18T06:33:54;102654.53;;;-7.72;87.91
3780;BME280;1905;52.482;9.802;2022-12-18T06:36:22;102659.66;;;-7.72;86.97
3780;BME280;1905;52.482;9.802;2022-12-18T06:38:49;102655.13;;;-7.76;87.83
3780;BME280;1905;52.482;9.802;2022-12-18T06:41:19;102656.13;;;-7.74;87.77
3780;BME280;1905;52.482;9.802;2022-12-18T06:43:47;102650.78;;;-7.77;87.12
3780;BME280;1905;52.482;9.802;2022-12-18T06:46:15;102660.25;;;-7.76;87.85
3780;BME280;1905;52.482;9.802;2022-12-18T06:48:46;102659.06;;;-7.81;87.82
3780;BME280;1905;52.482;9.802;2022-12-18T06:51:16;102664.97;;;-7.82;87.60
3780;BME280;1905;52.482;9.802;2022-12-18T06:53:44;102674.44;;;-7.81;87.66
3780;BME280;1905;52.482;9.802;2022-12-18T06:56:11;102670.72;;;-7.87;87.78
3780;BME280;1905;52.482;9.802;2022-12-18T06:58:39;102665.78;;;-7.83;87.38
3780;BME280;1905;52.482;9.802;2022-12-18T07:01:09;102670.91;;;-7.83;87.76
3780;BME280;1905;52.482;9.802;2022-12-18T07:03:38;102670.81;;;-7.85;87.30
3780;BME280;1905;52.482;9.802;2022-12-18T07:06:13;102669.94;;;-7.86;87.25
3780;BME280;1905;52.482;9.802;2022-12-18T07:08:41;102680.00;;;-7.89;87.33
3780;BME280;1905;52.482;9.802;2022-12-18T07:11:09;102686.09;;;-7.87;87.09
3780;BME280;1905;52.482;9.802;2022-12-18T07:13:37;102675.66;;;-7.90;87.44
3780;BME280;1905;52.482;9.802;2022-12-18T07:16:07;102679.50;;;-7.96;87.00
3780;BME280;1905;52.482;9.802;2022-12-18T07:18:44;102690.94;;;-7.91;87.78
3780;BME280;1905;52.482;9.802;2022-12-18T07:21:14;102695.88;;;-7.94;87.29
3780;BME280;1905;52.482;9.802;2022-12-18T07:23:42;102705.03;;;-7.98;87.11
3780;BME280;1905;52.482;9.802;2022-12-18T07:26:12;102706.72;;;-7.98;87.91
3780;BME280;1905;52.482;9.802;2022-12-18T07:28:40;102705.81;;;-7.99;86.94
3780;BME280;1905;52.482;9.802;2022-12-18T07:31:10;102706.81;;;-7.97;87.32
3780;BME280;1905;52.482;9.802;2022-12-18T07:33:38;102701.38;;;-8.01;87.43
3780;BME280;1905;52.482;9.802;2022-12-18T07:36:07;102701.31;;;-8.03;87.39
3780;BME280;1905;52.482;9.802;2022-12-18T07:38:38;102707.91;;;-8.06;87.58
3780;BME280;1905;52.482;9.802;2022-12-18T07:41:07;102708.09;;;-8.03;87.30
3780;BME280;1905;52.482;9.802;2022-12-18T07:43:35;102724.94;;;-8.07;87.23
3780;BME280;1905;52.482;9.802;2022-12-18T07:46:03;102729.28;;;-8.06;87.66
3780;BME280;1905;52.482;9.802;2022-12-18T07:48:31;102719.63;;;-8.10;87.43
3780;BME280;1905;52.482;9.802;2022-12-18T07:50:59;102731.47;;;-8.12;87.10
3780;BME280;1905;52.482;9.802;2022-12-18T07:53:27;102729.50;;;-8.16;87.42
3780;BME280;1905;52.482;9.802;2022-12-18T07:55:56;102723.78;;;-8.12;87.61
3780;BME280;1905;52.482;9.802;2022-12-18T07:58:44;102722.78;;;-8.14;87.35
3780;BME280;1905;52.482;9.802;2022-12-18T08:01:13;102716.91;;;-8.13;87.57
3780;BME280;1905;52.482;9.802;2022-12-18T08:03:42;102704.84;;;-8.14;87.03
3780;BME280;1905;52.482;9.802;2022-12-18T08:06:10;102693.72;;;-8.14;87.39
3780;BME280;1905;52.482;9.802;2022-12-18T08:08:37;102702.88;;;-8.18;87.57
3780;BME280;1905;52.482;9.802;2022-12-18T08:11:08;102706.66;;;-8.13;86.77
3780;BME280;1905;52.482;9.802;2022-12-18T08:13:35;102702.03;;;-8.18;87.52
3780;BME280;1905;52.482;9.802;2022-12-18T08:16:05;102695.81;;;-8.22;87.65
3780;BME280;1905;52.482;9.802;2022-12-18T08:18:34;102697.59;;;-8.21;87.57
3780;BME280;1905;52.482;9.802;2022-12-18T08:21:09;102694.41;;;-8.17;87.28
3780;BME280;1905;52.482;9.802;2022-12-18T08:23:37;102696.00;;;-8.19;87.42
3780;BME280;1905;52.482;9.802;2022-12-18T08:26:10;102692.63;;;-8.18;87.25
3780;BME280;1905;52.482;9.802;2022-12-18T08:28:39;102693.44;;;-8.19;87.16
3780;BME280;1905;52.482;9.802;2022-12-18T08:31:07;102697.09;;;-8.15;87.80
3780;BME280;1905;52.482;9.802;2022-12-18T08:33:36;102695.31;;;-8.16;86.87
3780;BME280;1905;52.482;9.802;2022-12-18T08:36:08;102695.03;;;-8.21;86.97
3780;BME280;1905;52.482;9.802;2022-12-18T08:38:37;102685.94;;;-8.16;87.54
3780;BME280;1905;52.482;9.802;2022-12-18T08:41:06;102675.50;;;-8.19;87.36
3780;BME280;1905;52.482;9.802;2022-12-18T08:43:35;102671.06;;;-8.21;86.82
3780;BME280;1905;52.482;9.802;2022-12-18T08:46:22;102673.91;;;-8.17;86.93
3780;BME280;1905;52.482;9.802;2022-12-18T08:48:51;102669.69;;;-8.16;86.66
3780;BME280;1905;52.482;9.802;2022-12-18T08:51:20;102661.22;;;-8.15;87.28
3780;BME280;1905;52.482;9.802;2022-12-18T08:53:47;102662.91;;;-8.16;86.79
3780;BME280;1905;52.482;9.802;2022-12-18T08:56:15;102672.34;;;-8.15;87.05
3780;BME280;1905;52.482;9.802;2022-12-18T08:58:44;102672.34;;;-8.15;87.46
3780;BME280;1905;52.482;9.802;2022-12-18T09:01:12;102668.31;;;-8.11;87.49
3780;BME280;1905;52.482;9.802;2022-12-18T09:03:41;102671.72;;;-7.98;87.05
3780;BME280;1905;52.482;9.802;2022-12-18T09:06:13;102666.81;;;-7.95;87.25
3780;BME280;1905;52.482;9.802;2022-12-18T09:08:42;102670.72;;;-7.87;88.06
3780;BME280;1905;52.482;9.802;2022-12-18T09:11:13;102674.06;;;-7.88;88.04
3780;BME280;1905;52.482;9.802;2022-12-18T09:13:41;102666.69;;;-7.83;88.23
3780;BME280;1905;52.482;9.802;2022-12-18T09:16:10;102661.78;;;-7.65;88.89
3780;BME280;1905;52.482;9.802;2022-12-18T09:18:38;102658.63;;;-7.61;88.97
3780;BME280;1905;52.482;9.802;2022-12-18T09:21:11;102655.94;;;-7.63;88.22
3780;BME280;1905;52.482;9.802;2022-12-18T09:23:39;102653.25;;;-7.51;88.61
3780;BME280;1905;52.482;9.802;2022-12-18T09:26:07;102651.84;;;-7.46;89.37
3780;BME280;1905;52.482;9.802;2022-12-18T09:28:34;102655.38;;;-7.44;89.03
3780;BME280;1905;52.482;9.802;2022-12-18T09:31:05;102653.00;;;-7.41;89.08
3780;BME280;1905;52.482;9.802;2022-12-18T09:33:35;102652.31;;;-7.39;88.99
3780;BME280;1905;52.482;9.802;2022-12-18T09:36:06;102657.63;;;-7.36;88.53
3780;BME280;1905;52.482;9.802;2022-12-18T09:38:34;102658.97;;;-7.28;89.00
3780;BME280;1905;52.482;9.802;2022-12-18T09:41:05;102651.38;;;-7.26;88.42
3780;BME280;1905;52.482;9.802;2022-12-18T09:43:45;102634.75;;;-7.18;89.21
3780;BME280;1905;52.482;9.802;2022-12-18T09:46:17;102643.97;;;-7.07;89.79
3780;BME280;1905;52.482;9.802;2022-12-18T09:48:51;102645.63;;;-6.93;90.16
3780;BME280;1905;52.482;9.802;2022-12-18T09:51:23;102651.13;;;-6.87;90.42
3780;BME280;1905;52.482;9.802;2022-12-18T09:53:55;102657.34;;;-6.83;90.16
3780;BME280;1905;52.482;9.802;2022-12-18T09:56:27;102664.94;;;-6.85;89.93
3780;BME280;1905;52.482;9.802;2022-12-18T09:58:58;102671.16;;;-6.67;91.05
3780;BME280;1905;52.482;9.802;2022-12-18T10:01:28;102672.38;;;-6.60;90.69
3780;BME280;1905;52.482;9.802;2022-12-18T10:04:10;102671.84;;;-6.54;91.49
3780;BME280;1905;52.482;9.802;2022-12-18T10:06:44;102668.13;;;-6.45;91.71
3780;BME280;1905;52.482;9.802;2022-12-18T10:09:20;102656.59;;;-6.37;91.92
3780;BME280;1905;52.482;9.802;2022-12-18T10:11:57;102664.56;;;-6.32;92.41
3780;BME280;1905;52.482;9.802;2022-12-18T10:14:32;102670.94;;;-6.26;92.88
3780;BME280;1905;52.482;9.802;2022-12-18T10:17:10;102678.09;;;-6.20;93.25
3780;BME280;1905;52.482;9.802;2022-12-18T10:19:47;102681.00;;;-6.14;93.42
3780;BME280;1905;52.482;9.802;2022-12-18T10:22:40;102677.44;;;-6.01;93.61
3780;BME280;1905;52.482;9.802;2022-12-18T10:25:23;102669.25;;;-5.94;93.73
3780;BME280;1905;52.482;9.802;2022-12-18T10:27:54;102670.47;;;-5.88;93.56
3780;BME280;1905;52.482;9.802;2022-12-18T10:30:24;102669.50;;;-5.74;93.43
3780;BME280;1905;52.482;9.802;2022-12-18T10:32:52;102671.25;;;-5.73;93.52
3780;BME280;1905;52.482;9.802;2022-12-18T10:35:23;102670.63;;;-5.69;93.64
3780;BME280;1905;52.482;9.802;2022-12-18T10:38:06;102655.94;;;-5.55;94.16
3780;BME280;1905;52.482;9.802;2022-12-18T10:40:49;102648.44;;;-5.51;93.75
3780;BME280;1905;52.482;9.802;2022-12-18T10:43:21;102651.25;;;-5.46;93.38
3780;BME280;1905;52.482;9.802;2022-12-18T10:46:07;102651.19;;;-5.31;93.82
3780;BME280;1905;52.482;9.802;2022-12-18T10:48:48;102653.25;;;-5.24;93.43
3780;BME280;1905;52.482;9.802;2022-12-18T10:51:23;102650.38;;;-5.14;93.12
3780;BME280;1905;52.482;9.802;2022-12-18T10:53:57;102644.94;;;-5.03;92.95
3780;BME280;1905;52.482;9.802;2022-12-18T10:56:29;102645.50;;;-4.92;92.83
3780;BME280;1905;52.482;9.802;2022-12-18T10:59:00;102638.06;;;-4.86;92.44
3780;BME280;1905;52.482;9.802;2022-12-18T11:01:45;102632.34;;;-4.81;92.41
3780;BME280;1905;52.482;9.802;2022-12-18T11:04:17;102608.81;;;-4.70;92.50
3780;BME280;1905;52.482;9.802;2022-12-18T11:06:56;102604.03;;;-4.63;91.95
3780;BME280;1905;52.482;9.802;2022-12-18T11:09:25;102601.88;;;-4.54;92.48
3780;BME280;1905;52.482;9.802;2022-12-18T11:11:55;102597.59;;;-4.53;92.47
3780;BME280;1905;52.482;9.802;2022-12-18T11:14:25;102602.16;;;-4.48;92.79
3780;BME280;1905;52.482;9.802;2022-12-18T11:16:54;102614.13;;;-4.32;91.99
3780;BME280;1905;52.482;9.802;2022-12-18T11:19:43;102612.63;;;-4.27;91.96
3780;BME280;1905;52.482;9.802;2022-12-18T11:22:20;102610.56;;;-4.16;91.93
3780;BME280;1905;52.482;9.802;2022-12-18T11:24:55;102617.84;;;-4.08;91.33
3780;BME280;1905;52.482;9.802;2022-12-18T11:27:48;102623.00;;;-4.08;91.71
3780;BME280;1905;52.482;9.802;2022-12-18T11:30:21;102611.41;;;-3.98;92.30
3780;BME280;1905;52.482;9.802;2022-12-18T11:32:51;102615.22;;;-3.90;91.66
3780;BME280;1905;52.482;9.802;2022-12-18T11:35:25;102615.50;;;-3.84;92.18
3780;BME280;1905;52.482;9.802;2022-12-18T11:38:00;102617.41;;;-3.80;91.95
3780;BME280;1905;52.482;9.802;2022-12-18T11:40:35;102615.38;;;-3.68;91.56
3780;BME280;1905;52.482;9.802;2022-12-18T11:43:10;102604.50;;;-3.61;91.43
3780;BME280;1905;52.482;9.802;2022-12-18T11:45:43;102603.00;;;-3.56;92.24
3780;BME280;1905;52.482;9.802;2022-12-18T11:48:17;102592.81;;;-3.53;92.52
3780;BME280;1905;52.482;9.802;2022-12-18T11:50:49;102584.81;;;-3.40;91.87
3780;BME280;1905;52.482;9.802;2022-12-18T11:53:19;102567.94;;;-3.32;91.45
3780;BME280;1905;52.482;9.802;2022-12-18T11:55:55;102559.38;;;-3.31;91.56
3780;BME280;1905;52.482;9.802;2022-12-18T11:58:38;102558.84;;;-3.24;91.47
3780;BME280;1905;52.482;9.802;2022-12-18T12:01:15;102555.81;;;-3.14;90.55
3780;BME280;1905;52.482;9.802;2022-12-18T12:03:55;102550.06;;;-3.07;89.79
3780;BME280;1905;52.482;9.802;2022-12-18T12:06:32;102540.63;;;-3.06;89.49
3780;BME280;1905;52.482;9.802;2022-12-18T12:09:11;102537.97;;;-3.08;90.49
3780;BME280;1905;52.482;9.802;2022-12-18T12:11:49;102528.63;;;-3.04;90.57
3780;BME280;1905;52.482;9.802;2022-12-18T12:14:29;102529.78;;;-2.97;89.90
3780;BME280;1905;52.482;9.802;2022-12-18T12:17:07;102518.84;;;-2.90;89.20
3780;BME280;1905;52.482;9.802;2022-12-18T12:19:45;102516.53;;;-2.84;88.91
3780;BME280;1905;52.482;9.802;2022-12-18T12:22:23;102507.09;;;-2.84;88.94
3780;BME280;1905;52.482;9.802;2022-12-18T12:25:02;102507.09;;;-2.84;89.46
3780;BME280;1905;52.482;9.802;2022-12-18T12:27:40;102494.19;;;-2.82;89.27
3780;BME280;1905;52.482;9.802;2022-12-18T12:30:19;102500.34;;;-2.80;88.99
3780;BME280;1905;52.482;9.802;2022-12-18T12:33:02;102501.41;;;-2.75;89.21
3780;BME280;1905;52.482;9.802;2022-12-18T12:35:41;102506.56;;;-2.75;88.90
3780;BME280;1905;52.482;9.802;2022-12-18T12:38:14;102505.84;;;-2.71;89.44
3780;BME280;1905;52.482;9.802;2022-12-18T12:40:47;102503.25;;;-2.71;89.34
3780;BME280;1905;52.482;9.802;2022-12-18T12:43:32;102507.13;;;-2.39;88.19
3780;BME280;1905;52.482;9.802;2022-12-18T12:46:03;102497.63;;;-2.39;87.77
3780;BME280;1905;52.482;9.802;2022-12-18T12:48:41;102501.06;;;-2.40;86.80
3780;BME280;1905;52.482;9.802;2022-12-18T12:51:18;102476.66;;;-2.47;87.87
3780;BME280;1905;52.482;9.802;2022-12-18T12:53:48;102469.53;;;-2.52;87.45
3780;BME280;1905;52.482;9.802;2022-12-18T12:56:18;102468.84;;;-2.48;87.78
3780;BME280;1905;52.482;9.802;2022-12-18T12:58:55;102478.16;;;-2.53;88.16
3780;BME280;1905;52.482;9.802;2022-12-18T13:01:32;102472.09;;;-2.54;88.64
3780;BME280;1905;52.482;9.802;2022-12-18T13:04:10;102476.38;;;-2.54;88.64
3780;BME280;1905;52.482;9.802;2022-12-18T13:06:45;102469.63;;;-2.51;88.40
3780;BME280;1905;52.482;9.802;2022-12-18T13:09:15;102465.22;;;-2.53;88.32
3780;BME280;1905;52.482;9.802;2022-12-18T13:11:45;102464.38;;;-2.52;88.18
3780;BME280;1905;52.482;9.802;2022-12-18T13:14:31;102471.31;;;-2.51;88.60
3780;BME280;1905;52.482;9.802;2022-12-18T13:17:16;102469.53;;;-2.52;88.62
3780;BME280;1905;52.482;9.802;2022-12-18T13:19:48;102462.75;;;-2.50;87.47
3780;BME280;1905;52.482;9.802;2022-12-18T13:22:22;102469.53;;;-2.52;88.33
3780;BME280;1905;52.482;9.802;2022-12-18T13:24:50;102478.34;;;-2.47;88.38
3780;BME280;1905;52.482;9.802;2022-12-18T13:27:59;102488.00;;;-2.43;88.18
3780;BME280;1905;52.482;9.802;2022-12-18T13:30:43;102486.97;;;-2.48;88.01
3780;BME280;1905;52.482;9.802;2022-12-18T13:33:36;102477.41;;;-2.49;87.63
3780;BME280;1905;52.482;9.802;2022-12-18T13:36:30;102471.19;;;-2.54;88.77
3780;BME280;1905;52.482;9.802;2022-12-18T13:39:21;102481.66;;;-2.51;87.67